createdAt,value
2023-01-13T00:02:39.157Z,4.80
2023-01-13T00:07:40.916Z,4.80
2023-01-13T00:12:43.559Z,4.80
2023-01-13T00:17:45.325Z,4.80
2023-01-13T00:22:47.043Z,4.80
2023-01-13T00:27:48.757Z,4.80
2023-01-13T00:32:50.473Z,4.80
2023-01-13T00:37:52.167Z,4.80
2023-01-13T00:43:12.576Z,4.80
2023-01-13T00:48:14.275Z,4.80
2023-01-13T00:53:17.025Z,4.80
2023-01-13T00:58:18.780Z,4.80
2023-01-13T01:03:20.565Z,4.90
2023-01-13T01:08:22.354Z,4.90
2023-01-13T01:13:25.374Z,4.90
2023-01-13T01:18:27.222Z,4.90
2023-01-13T01:23:29.678Z,4.90
2023-01-13T01:28:31.766Z,4.90
2023-01-13T01:33:33.882Z,4.90
2023-01-13T01:38:35.650Z,4.90
2023-01-13T01:44:00.292Z,4.90
2023-01-13T01:49:24.245Z,4.90
2023-01-13T01:54:39.837Z,4.90
2023-01-13T01:59:42.293Z,4.90
2023-01-13T02:04:50.973Z,4.90
2023-01-13T02:09:55.689Z,4.90
2023-01-13T02:15:01.425Z,4.90
2023-01-13T02:20:21.225Z,4.90
2023-01-13T02:25:46.379Z,4.90
2023-01-13T02:31:14.838Z,4.90
2023-01-13T02:36:38.742Z,4.90
2023-01-13T02:42:06.558Z,4.90
2023-01-13T02:47:26.999Z,4.90
2023-01-13T02:52:54.777Z,4.90
2023-01-13T02:57:59.668Z,4.90
2023-01-13T03:03:01.673Z,4.90
2023-01-13T03:08:27.387Z,4.90
2023-01-13T03:13:56.497Z,4.90
2023-01-13T03:19:31.328Z,4.90
2023-01-13T03:25:00.822Z,4.90
2023-01-13T03:30:33.190Z,4.90
2023-01-13T03:35:40.275Z,4.90
2023-01-13T03:40:49.885Z,4.90
2023-01-13T03:45:56.197Z,4.90
2023-01-13T03:51:04.859Z,4.90
2023-01-13T03:56:17.712Z,4.90
2023-01-13T04:01:33.349Z,4.90
2023-01-13T04:07:10.594Z,4.90
2023-01-13T04:12:24.858Z,4.90
2023-01-13T04:17:26.995Z,4.90
2023-01-13T04:22:28.709Z,4.90
2023-01-13T04:27:30.699Z,4.90
2023-01-13T04:32:32.481Z,4.90
2023-01-13T04:37:34.238Z,4.90
2023-01-13T04:42:35.951Z,4.90
2023-01-13T04:47:38.025Z,4.90
2023-01-13T04:52:39.787Z,4.90
2023-01-13T04:57:41.574Z,4.90
2023-01-13T05:02:43.342Z,4.90
2023-01-13T05:07:45.692Z,4.90
2023-01-13T05:13:05.891Z,5.00
2023-01-13T05:18:07.693Z,5.00
2023-01-13T05:23:27.915Z,4.90
2023-01-13T05:28:33.557Z,4.90
2023-01-13T05:33:36.127Z,4.90
2023-01-13T05:38:37.977Z,4.90
2023-01-13T05:43:39.751Z,4.90
2023-01-13T05:48:43.057Z,4.90
2023-01-13T05:53:44.804Z,4.90
2023-01-13T05:58:46.607Z,4.90
2023-01-13T06:03:48.326Z,4.90
2023-01-13T06:08:50.233Z,4.90
2023-01-13T06:13:52.451Z,5.00
2023-01-13T06:18:54.567Z,4.90
2023-01-13T06:23:58.667Z,4.90
2023-01-13T06:29:00.390Z,4.90
2023-01-13T06:34:09.146Z,5.00
2023-01-13T06:39:13.796Z,5.00
2023-01-13T06:44:15.617Z,5.00
2023-01-13T06:49:17.506Z,5.00
2023-01-13T06:54:19.371Z,5.00
2023-01-13T06:59:21.149Z,5.00
2023-01-13T07:04:23.047Z,5.00
2023-01-13T07:09:24.903Z,5.00
2023-01-13T07:14:45.238Z,5.00
2023-01-13T07:19:47.098Z,5.10
2023-01-13T07:24:48.905Z,5.10
2023-01-13T07:29:50.629Z,5.10
2023-01-13T07:34:52.338Z,5.10
2023-01-13T07:39:54.156Z,5.10
2023-01-13T07:44:55.870Z,5.10
2023-01-13T07:49:57.641Z,5.20
2023-01-13T07:54:59.373Z,5.20
2023-01-13T08:00:01.165Z,5.30
2023-01-13T08:05:02.939Z,5.20
2023-01-13T08:10:05.072Z,5.30
2023-01-13T08:15:10.011Z,5.40
2023-01-13T08:20:11.919Z,5.40
2023-01-13T08:25:13.700Z,5.40
2023-01-13T08:30:15.834Z,5.40
2023-01-13T08:35:18.401Z,5.40
2023-01-13T08:40:20.942Z,5.50
2023-01-13T08:45:22.967Z,5.50
2023-01-13T08:50:24.735Z,5.60
2023-01-13T08:55:26.507Z,5.70
2023-01-13T09:00:28.296Z,5.70
2023-01-13T09:05:30.046Z,5.70
2023-01-13T09:10:32.389Z,5.80
2023-01-13T09:15:34.194Z,5.80
2023-01-13T09:20:36.232Z,5.90
2023-01-13T09:25:38.853Z,6.00
2023-01-13T09:30:40.710Z,6.00
2023-01-13T09:35:42.424Z,6.10
2023-01-13T09:40:47.171Z,6.20
2023-01-13T09:45:56.570Z,6.20
2023-01-13T09:51:18.707Z,6.30
2023-01-13T09:56:20.614Z,6.30
2023-01-13T10:01:40.490Z,6.40
2023-01-13T10:06:47.494Z,6.70
2023-01-13T10:12:09.145Z,6.50
2023-01-13T10:17:25.854Z,6.60
2023-01-13T10:22:49.211Z,6.60
2023-01-13T10:27:53.559Z,6.60
2023-01-13T10:32:58.362Z,6.60
2023-01-13T10:38:00.137Z,6.70
2023-01-13T10:43:08.283Z,6.70
2023-01-13T10:48:14.941Z,6.80
2023-01-13T10:53:22.577Z,6.70
2023-01-13T10:58:25.760Z,6.80
2023-01-13T11:03:36.499Z,6.90
2023-01-13T11:08:45.268Z,6.90
2023-01-13T11:14:09.193Z,7.00
2023-01-13T11:19:17.112Z,7.10
2023-01-13T11:24:21.797Z,7.10
2023-01-13T11:29:41.377Z,7.20
2023-01-13T11:34:46.988Z,7.20
2023-01-13T11:39:59.637Z,7.20
2023-01-13T11:45:36.574Z,7.20
2023-01-13T11:50:51.212Z,7.20
2023-01-13T11:56:30.435Z,7.30
2023-01-13T12:01:58.445Z,7.30
2023-01-13T12:07:23.031Z,7.30
2023-01-13T12:12:48.390Z,7.20
2023-01-13T12:18:02.162Z,7.20
2023-01-13T12:23:13.262Z,7.20
2023-01-13T12:28:24.410Z,7.20
2023-01-13T12:33:48.212Z,7.10
2023-01-13T12:38:57.380Z,7.10
2023-01-13T12:44:18.246Z,7.10
2023-01-13T12:49:21.452Z,7.10
2023-01-13T12:54:42.403Z,7.10
2023-01-13T12:59:49.052Z,7.00
2023-01-13T13:04:56.078Z,7.00
2023-01-13T13:10:06.488Z,7.00
2023-01-13T13:15:25.181Z,6.90
2023-01-13T13:20:53.910Z,6.80
2023-01-13T13:26:24.979Z,6.80
2023-01-13T13:31:52.909Z,6.70
2023-01-13T13:37:15.589Z,6.70
2023-01-13T13:42:40.093Z,6.70
2023-01-13T13:47:41.825Z,6.80
2023-01-13T13:52:51.839Z,6.80
2023-01-13T13:57:57.365Z,6.70
2023-01-13T14:03:02.961Z,6.70
2023-01-13T14:08:14.857Z,6.60
2023-01-13T14:13:22.875Z,6.60
2023-01-13T14:18:26.300Z,6.70
2023-01-13T14:23:31.114Z,6.70
2023-01-13T14:28:38.234Z,6.70
2023-01-13T14:33:52.371Z,6.70
2023-01-13T14:39:03.413Z,6.70
2023-01-13T14:44:34.972Z,6.60
2023-01-13T14:49:51.121Z,6.60
2023-01-13T14:55:10.843Z,6.50
2023-01-13T15:00:15.333Z,6.50
2023-01-13T15:05:18.600Z,6.50
2023-01-13T15:10:27.860Z,6.40
2023-01-13T15:15:37.822Z,6.40
2023-01-13T15:20:41.071Z,6.40
2023-01-13T15:25:44.097Z,6.40
2023-01-13T15:30:46.705Z,6.30
2023-01-13T15:35:50.786Z,6.30
2023-01-13T15:40:53.046Z,6.30
2023-01-13T15:46:13.643Z,6.30
2023-01-13T15:51:15.508Z,6.30
2023-01-13T15:56:24.442Z,6.30
2023-01-13T16:01:26.335Z,6.20
2023-01-13T16:06:34.786Z,6.20
2023-01-13T16:11:36.539Z,6.20
2023-01-13T16:16:38.433Z,6.10
2023-01-13T16:21:40.460Z,6.10
2023-01-13T16:26:42.293Z,6.10
2023-01-13T16:31:44.093Z,6.00
2023-01-13T16:36:46.354Z,6.00
2023-01-13T16:41:48.639Z,6.00
2023-01-13T16:46:50.543Z,6.00
2023-01-13T16:51:52.349Z,6.00
2023-01-13T16:56:54.184Z,6.00
2023-01-13T17:01:56.006Z,6.00
2023-01-13T17:07:03.774Z,6.00
2023-01-13T17:12:05.565Z,5.90
2023-01-13T17:17:19.930Z,5.90
2023-01-13T17:22:22.145Z,5.80
2023-01-13T17:27:24.227Z,5.80
2023-01-13T17:32:26.107Z,5.70
2023-01-13T17:37:28.166Z,5.70
2023-01-13T17:42:30.005Z,5.60
2023-01-13T17:47:31.824Z,5.60
2023-01-13T17:52:34.926Z,5.60
2023-01-13T17:57:36.674Z,5.50
2023-01-13T18:02:38.515Z,5.50
2023-01-13T18:07:40.372Z,5.50
2023-01-13T18:12:42.105Z,5.50
2023-01-13T18:17:44.144Z,5.40
2023-01-13T18:23:05.900Z,5.40
2023-01-13T18:28:07.689Z,5.40
2023-01-13T18:33:09.496Z,5.40
2023-01-13T18:38:26.652Z,5.30
2023-01-13T18:43:28.493Z,5.30
2023-01-13T18:48:31.238Z,5.30
2023-01-13T18:53:32.970Z,5.30
2023-01-13T18:58:34.775Z,5.30
2023-01-13T19:03:36.609Z,5.30
2023-01-13T19:08:38.394Z,5.30
2023-01-13T19:13:40.109Z,5.30
2023-01-13T19:18:42.225Z,5.20
2023-01-13T19:23:43.965Z,5.20
2023-01-13T19:28:45.840Z,5.20
2023-01-13T19:33:47.589Z,5.10
2023-01-13T19:38:49.317Z,5.10
2023-01-13T19:44:09.573Z,5.10
2023-01-13T19:49:11.373Z,5.00
2023-01-13T19:54:13.149Z,5.10
2023-01-13T19:59:19.009Z,5.10
2023-01-13T20:04:27.083Z,5.10
2023-01-13T20:09:30.844Z,5.10
2023-01-13T20:14:32.591Z,5.00
2023-01-13T20:19:34.348Z,5.00
2023-01-13T20:24:36.170Z,4.90
2023-01-13T20:29:38.058Z,5.00
2023-01-13T20:34:40.402Z,4.90
2023-01-13T20:39:46.247Z,4.90
2023-01-13T20:44:48.194Z,4.90
2023-01-13T20:49:49.919Z,4.90
2023-01-13T20:54:51.871Z,4.80
2023-01-13T20:59:53.738Z,4.70
2023-01-13T21:04:55.508Z,4.80
2023-01-13T21:09:57.748Z,4.70
2023-01-13T21:15:17.625Z,4.70
2023-01-13T21:20:19.586Z,4.70
2023-01-13T21:25:21.511Z,4.70
2023-01-13T21:30:23.477Z,4.70
2023-01-13T21:35:25.189Z,4.70
2023-01-13T21:40:27.018Z,4.70
2023-01-13T21:45:47.259Z,4.70
2023-01-13T21:50:49.006Z,4.70
2023-01-13T21:55:52.358Z,4.70
2023-01-13T22:00:54.299Z,4.70
2023-01-13T22:05:56.591Z,4.70
2023-01-13T22:10:59.302Z,4.70
2023-01-13T22:16:04.689Z,4.70
2023-01-13T22:21:06.957Z,4.70
2023-01-13T22:26:09.102Z,4.70
2023-01-13T22:31:15.745Z,4.70
2023-01-13T22:36:17.820Z,4.70
2023-01-13T22:41:19.633Z,4.70
2023-01-13T22:46:22.933Z,4.70
2023-01-13T22:51:26.484Z,4.70
2023-01-13T22:56:28.311Z,4.60
2023-01-13T23:01:32.502Z,4.70
2023-01-13T23:06:35.217Z,4.70
2023-01-13T23:11:37.161Z,4.70
2023-01-13T23:16:40.517Z,4.70
2023-01-13T23:21:42.432Z,4.70
2023-01-13T23:26:44.258Z,4.60
2023-01-13T23:31:46.024Z,4.70
2023-01-13T23:36:47.868Z,4.70
2023-01-13T23:41:49.575Z,4.70
2023-01-13T23:46:51.419Z,4.70
2023-01-13T23:51:53.617Z,4.70
2023-01-13T23:56:55.404Z,4.60
